createdAt,value
2023-03-07T00:02:01.765Z,1.77
2023-03-07T00:04:29.976Z,1.45
2023-03-07T00:06:58.786Z,1.90
2023-03-07T00:09:27.204Z,2.17
2023-03-07T00:11:57.719Z,1.63
2023-03-07T00:14:26.126Z,1.70
2023-03-07T00:16:54.603Z,2.20
2023-03-07T00:19:24.209Z,2.58
2023-03-07T00:21:54.735Z,3.03
2023-03-07T00:24:25.231Z,2.65
2023-03-07T00:26:53.584Z,2.35
2023-03-07T00:29:22.501Z,2.75
2023-03-07T00:31:51.154Z,2.95
2023-03-07T00:34:19.555Z,2.95
2023-03-07T00:36:49.254Z,2.83
2023-03-07T00:39:17.628Z,2.70
2023-03-07T00:41:46.082Z,2.83
2023-03-07T00:44:16.626Z,4.13
2023-03-07T00:46:44.846Z,3.13
2023-03-07T00:49:13.066Z,3.33
2023-03-07T00:51:41.308Z,3.25
2023-03-07T00:54:13.480Z,3.50
2023-03-07T00:56:46.404Z,2.70
2023-03-07T00:59:16.988Z,3.05
2023-03-07T01:01:47.697Z,2.88
2023-03-07T01:04:16.248Z,2.97
2023-03-07T01:06:49.141Z,2.65
2023-03-07T01:09:21.435Z,2.90
2023-03-07T01:11:51.116Z,2.75
2023-03-07T01:14:19.795Z,3.05
2023-03-07T01:16:48.195Z,2.70
2023-03-07T01:19:16.898Z,2.88
2023-03-07T01:21:45.477Z,2.80
2023-03-07T01:24:14.924Z,3.10
2023-03-07T01:26:45.293Z,2.95
2023-03-07T01:29:13.836Z,2.60
2023-03-07T01:31:42.244Z,3.33
2023-03-07T01:34:11.155Z,3.15
2023-03-07T01:36:39.936Z,3.08
2023-03-07T01:39:10.444Z,2.33
2023-03-07T01:41:42.278Z,2.45
2023-03-07T01:44:16.353Z,2.08
2023-03-07T01:46:46.409Z,2.10
2023-03-07T01:49:22.011Z,1.83
2023-03-07T01:51:59.408Z,1.70
2023-03-07T01:54:30.497Z,2.15
2023-03-07T01:57:01.758Z,1.60
2023-03-07T01:59:33.530Z,2.22
2023-03-07T02:02:05.329Z,1.83
2023-03-07T02:04:36.058Z,1.55
2023-03-07T02:07:04.647Z,1.25
2023-03-07T02:09:34.473Z,1.00
2023-03-07T02:12:03.662Z,0.90
2023-03-07T02:14:36.106Z,1.50
2023-03-07T02:17:05.020Z,1.40
2023-03-07T02:19:40.877Z,1.30
2023-03-07T02:22:11.139Z,2.30
2023-03-07T02:24:43.063Z,2.13
2023-03-07T02:27:12.764Z,1.73
2023-03-07T02:29:41.341Z,2.03
2023-03-07T02:32:10.549Z,1.35
2023-03-07T02:34:38.971Z,1.50
2023-03-07T02:37:18.222Z,1.52
2023-03-07T02:39:48.149Z,1.23
2023-03-07T02:42:22.487Z,1.60
2023-03-07T02:44:59.203Z,1.80
2023-03-07T02:47:29.966Z,1.42
2023-03-07T02:49:59.625Z,1.40
2023-03-07T02:52:30.327Z,1.83
2023-03-07T02:54:59.134Z,1.88
2023-03-07T02:57:33.532Z,1.65
2023-03-07T03:00:03.281Z,1.02
2023-03-07T03:02:33.898Z,1.02
2023-03-07T03:05:04.617Z,1.48
2023-03-07T03:07:37.555Z,1.33
2023-03-07T03:10:08.840Z,1.10
2023-03-07T03:12:38.992Z,1.02
2023-03-07T03:15:13.184Z,1.50
2023-03-07T03:17:42.130Z,1.70
2023-03-07T03:20:12.703Z,1.35
2023-03-07T03:22:41.042Z,1.23
2023-03-07T03:25:11.132Z,2.25
2023-03-07T03:27:43.206Z,2.35
2023-03-07T03:30:14.004Z,1.90
2023-03-07T03:32:43.785Z,2.30
2023-03-07T03:35:14.990Z,1.98
2023-03-07T03:37:46.265Z,1.80
2023-03-07T03:40:19.432Z,1.80
2023-03-07T03:42:51.039Z,1.67
2023-03-07T03:45:20.862Z,2.25
2023-03-07T03:47:51.462Z,1.58
2023-03-07T03:50:20.110Z,1.90
2023-03-07T03:52:48.375Z,2.60
2023-03-07T03:55:16.786Z,2.45
2023-03-07T03:57:47.266Z,2.17
2023-03-07T04:00:21.102Z,3.22
2023-03-07T04:02:56.484Z,2.20
2023-03-07T04:05:32.179Z,2.65
2023-03-07T04:08:00.613Z,2.42
2023-03-07T04:10:28.924Z,2.22
2023-03-07T04:12:57.223Z,2.10
2023-03-07T04:15:27.221Z,1.65
2023-03-07T04:17:56.327Z,1.52
2023-03-07T04:20:26.761Z,1.40
2023-03-07T04:22:55.134Z,1.70
2023-03-07T04:25:23.409Z,0.88
2023-03-07T04:27:56.644Z,1.13
2023-03-07T04:30:27.175Z,1.20
2023-03-07T04:32:55.526Z,0.93
2023-03-07T04:35:23.916Z,0.80
2023-03-07T04:37:52.602Z,1.00
2023-03-07T04:40:21.216Z,1.13
2023-03-07T04:42:49.596Z,1.17
2023-03-07T04:45:19.982Z,1.15
2023-03-07T04:47:49.842Z,0.82
2023-03-07T04:50:18.496Z,0.90
2023-03-07T04:52:47.802Z,1.13
2023-03-07T04:55:16.756Z,0.80
2023-03-07T04:57:45.181Z,1.45
2023-03-07T05:00:15.205Z,0.95
2023-03-07T05:02:46.826Z,0.88
2023-03-07T05:05:16.593Z,0.80
2023-03-07T05:07:45.698Z,0.70
2023-03-07T05:10:14.551Z,1.15
2023-03-07T05:12:42.905Z,1.10
2023-03-07T05:15:15.316Z,0.93
2023-03-07T05:17:43.676Z,1.05
2023-03-07T05:20:15.150Z,0.90
2023-03-07T05:22:44.883Z,0.80
2023-03-07T05:25:13.181Z,0.73
2023-03-07T05:27:42.689Z,0.68
2023-03-07T05:30:12.500Z,0.60
2023-03-07T05:32:41.164Z,0.52
2023-03-07T05:35:12.353Z,0.88
2023-03-07T05:37:41.919Z,0.30
2023-03-07T05:40:14.005Z,0.63
2023-03-07T05:42:46.184Z,0.75
2023-03-07T05:45:15.275Z,0.32
2023-03-07T05:47:44.483Z,0.70
2023-03-07T05:50:14.610Z,0.65
2023-03-07T05:52:43.591Z,0.28
2023-03-07T05:55:13.494Z,0.40
2023-03-07T05:57:42.024Z,0.40
2023-03-07T06:00:11.568Z,0.28
2023-03-07T06:02:42.910Z,0.30
2023-03-07T06:05:14.689Z,0.40
2023-03-07T06:07:44.102Z,0.70
2023-03-07T06:10:16.705Z,0.60
2023-03-07T06:12:45.273Z,0.40
2023-03-07T06:15:13.719Z,1.08
2023-03-07T06:17:42.696Z,0.60
2023-03-07T06:20:11.752Z,0.82
2023-03-07T06:22:41.016Z,0.50
2023-03-07T06:25:10.300Z,0.82
2023-03-07T06:27:41.193Z,0.40
2023-03-07T06:30:10.157Z,0.40
2023-03-07T06:32:38.847Z,0.40
2023-03-07T06:35:08.726Z,0.57
2023-03-07T06:37:37.768Z,0.60
2023-03-07T06:40:09.396Z,0.30
2023-03-07T06:42:40.373Z,0.70
2023-03-07T06:45:10.775Z,0.63
2023-03-07T06:47:39.244Z,0.68
2023-03-07T06:50:09.937Z,0.73
2023-03-07T06:52:39.344Z,0.73
2023-03-07T06:55:08.921Z,0.90
2023-03-07T06:57:37.831Z,0.55
2023-03-07T07:00:09.406Z,1.13
2023-03-07T07:02:40.304Z,0.43
2023-03-07T07:05:09.023Z,0.40
2023-03-07T07:07:39.915Z,0.50
2023-03-07T07:10:09.183Z,0.52
2023-03-07T07:12:37.969Z,0.38
2023-03-07T07:15:08.918Z,0.60
2023-03-07T07:17:39.924Z,0.50
2023-03-07T07:20:11.362Z,0.60
2023-03-07T07:22:41.777Z,0.40
2023-03-07T07:25:11.236Z,0.75
2023-03-07T07:27:40.021Z,0.60
2023-03-07T07:30:10.902Z,0.65
2023-03-07T07:32:42.082Z,0.73
2023-03-07T07:35:11.437Z,0.90
2023-03-07T07:37:40.321Z,0.93
2023-03-07T07:40:10.571Z,0.52
2023-03-07T07:42:43.389Z,0.80
2023-03-07T07:45:23.903Z,0.68
2023-03-07T07:47:52.922Z,1.27
2023-03-07T07:50:23.977Z,1.27
2023-03-07T07:52:54.237Z,0.90
2023-03-07T07:55:25.963Z,0.88
2023-03-07T07:57:54.388Z,1.02
2023-03-07T08:00:24.358Z,0.88
2023-03-07T08:02:53.248Z,1.13
2023-03-07T08:05:22.500Z,1.50
2023-03-07T08:07:51.097Z,1.10
2023-03-07T08:10:19.817Z,1.17
2023-03-07T08:12:51.539Z,1.33
2023-03-07T08:15:21.664Z,1.60
2023-03-07T08:17:52.544Z,1.95
2023-03-07T08:20:25.709Z,2.00
2023-03-07T08:22:54.147Z,1.80
2023-03-07T08:25:25.453Z,1.73
2023-03-07T08:27:55.176Z,1.98
2023-03-07T08:30:24.034Z,2.40
2023-03-07T08:32:54.160Z,2.03
2023-03-07T08:35:24.943Z,1.50
2023-03-07T08:37:55.752Z,1.90
2023-03-07T08:40:24.830Z,1.73
2023-03-07T08:42:56.039Z,1.23
2023-03-07T08:45:24.305Z,1.50
2023-03-07T08:47:55.499Z,2.28
2023-03-07T08:50:24.187Z,1.60
2023-03-07T08:52:52.745Z,1.38
2023-03-07T08:55:21.121Z,0.80
2023-03-07T08:57:49.393Z,1.50
2023-03-07T09:00:20.546Z,1.02
2023-03-07T09:02:51.224Z,1.92
2023-03-07T09:05:20.989Z,1.40
2023-03-07T09:07:49.265Z,1.60
2023-03-07T09:10:20.392Z,1.20
2023-03-07T09:12:48.957Z,1.75
2023-03-07T09:15:19.575Z,1.45
2023-03-07T09:17:48.003Z,1.55
2023-03-07T09:20:17.636Z,1.75
2023-03-07T09:22:47.480Z,0.90
2023-03-07T09:25:15.929Z,1.98
2023-03-07T09:27:45.511Z,1.50
2023-03-07T09:30:14.268Z,1.25
2023-03-07T09:32:45.082Z,1.25
2023-03-07T09:35:13.523Z,1.30
2023-03-07T09:37:41.762Z,1.45
2023-03-07T09:40:16.508Z,1.50
2023-03-07T09:42:48.739Z,1.30
2023-03-07T09:45:22.816Z,1.20
2023-03-07T09:48:17.322Z,1.60
2023-03-07T09:50:48.589Z,1.00
2023-03-07T09:53:20.760Z,0.85
2023-03-07T09:55:52.714Z,0.88
2023-03-07T09:58:23.232Z,1.00
2023-03-07T10:00:55.036Z,1.25
2023-03-07T10:03:29.112Z,1.52
2023-03-07T10:05:59.141Z,1.13
2023-03-07T10:08:28.982Z,1.02
2023-03-07T10:11:02.164Z,1.00
2023-03-07T10:13:37.287Z,0.68
2023-03-07T10:16:10.912Z,0.65
2023-03-07T10:18:48.656Z,1.13
2023-03-07T10:21:22.646Z,0.70
2023-03-07T10:24:02.363Z,0.52
2023-03-07T10:26:34.407Z,0.50
2023-03-07T10:29:03.614Z,0.43
2023-03-07T10:31:34.711Z,0.43
2023-03-07T10:34:07.010Z,0.20
2023-03-07T10:36:42.588Z,0.32
2023-03-07T10:39:16.816Z,0.40
2023-03-07T10:41:46.537Z,0.20
2023-03-07T10:44:18.958Z,0.40
2023-03-07T10:46:55.885Z,0.52
2023-03-07T10:49:27.121Z,0.75
2023-03-07T10:51:57.506Z,0.60
2023-03-07T10:54:30.304Z,0.65
2023-03-07T10:57:10.743Z,0.77
2023-03-07T10:59:40.155Z,0.98
2023-03-07T11:02:32.786Z,0.25
2023-03-07T11:05:01.335Z,0.47
2023-03-07T11:07:32.815Z,0.40
2023-03-07T11:10:01.664Z,1.23
2023-03-07T11:12:31.969Z,0.50
2023-03-07T11:15:12.282Z,0.40
2023-03-07T11:17:42.946Z,0.47
2023-03-07T11:20:20.663Z,0.50
2023-03-07T11:22:48.996Z,0.30
2023-03-07T11:25:27.402Z,0.65
2023-03-07T11:27:58.027Z,0.80
2023-03-07T11:30:29.834Z,0.50
2023-03-07T11:33:03.422Z,0.70
2023-03-07T11:35:39.038Z,0.50
2023-03-07T11:38:10.721Z,0.30
2023-03-07T11:40:42.168Z,0.30
2023-03-07T11:43:18.468Z,0.60
2023-03-07T11:45:53.985Z,0.60
2023-03-07T11:48:28.656Z,0.60
2023-03-07T11:50:59.713Z,0.30
2023-03-07T11:53:45.515Z,0.40
2023-03-07T11:56:21.346Z,0.50
2023-03-07T11:59:09.013Z,0.45
2023-03-07T12:01:44.253Z,0.50
2023-03-07T12:04:33.587Z,0.30
2023-03-07T12:07:06.601Z,0.40
2023-03-07T12:09:41.136Z,0.40
2023-03-07T12:12:23.456Z,0.30
2023-03-07T12:14:57.300Z,1.17
2023-03-07T12:17:33.260Z,0.68
2023-03-07T12:20:16.781Z,0.70
2023-03-07T12:22:51.337Z,0.70
2023-03-07T12:25:23.487Z,0.30
2023-03-07T12:27:54.493Z,0.77
2023-03-07T12:30:29.073Z,0.40
2023-03-07T12:32:59.489Z,0.73
2023-03-07T12:35:33.301Z,0.90
2023-03-07T12:38:06.373Z,0.73
2023-03-07T12:40:37.558Z,0.60
2023-03-07T12:43:16.043Z,1.25
2023-03-07T12:45:46.562Z,0.40
2023-03-07T12:48:19.578Z,0.40
2023-03-07T12:50:51.349Z,0.40
2023-03-07T12:53:22.602Z,0.30
2023-03-07T12:55:52.832Z,0.93
2023-03-07T12:58:24.030Z,0.50
2023-03-07T13:00:56.251Z,0.50
2023-03-07T13:03:36.111Z,0.60
2023-03-07T13:06:07.752Z,0.60
2023-03-07T13:08:38.989Z,0.80
2023-03-07T13:11:13.576Z,0.70
2023-03-07T13:13:54.256Z,0.35
2023-03-07T13:16:37.891Z,0.40
2023-03-07T13:19:26.733Z,0.70
2023-03-07T13:21:58.684Z,0.40
2023-03-07T13:24:33.964Z,0.40
2023-03-07T13:27:02.454Z,0.20
2023-03-07T13:29:49.431Z,0.60
2023-03-07T13:32:34.956Z,0.35
2023-03-07T13:35:03.445Z,0.40
2023-03-07T13:37:50.140Z,0.35
2023-03-07T13:40:39.550Z,0.47
2023-03-07T13:43:32.711Z,0.40
2023-03-07T13:46:05.813Z,0.40
2023-03-07T13:49:01.154Z,0.60
2023-03-07T13:51:30.100Z,0.55
2023-03-07T13:54:01.823Z,0.57
2023-03-07T13:56:31.556Z,0.50
2023-03-07T13:59:01.005Z,0.70
2023-03-07T14:01:34.921Z,0.95
2023-03-07T14:04:06.025Z,0.57
2023-03-07T14:06:36.396Z,0.68
2023-03-07T14:09:08.924Z,0.85
2023-03-07T14:11:42.990Z,0.50
2023-03-07T14:14:28.948Z,0.52
2023-03-07T14:17:07.670Z,0.52
2023-03-07T14:19:45.459Z,0.57
2023-03-07T14:22:18.146Z,0.52
2023-03-07T14:25:00.697Z,0.50
2023-03-07T14:27:31.317Z,0.70
2023-03-07T14:30:04.101Z,0.60
2023-03-07T14:32:35.410Z,0.73
2023-03-07T14:35:05.950Z,0.52
2023-03-07T14:37:36.620Z,0.90
2023-03-07T14:40:13.120Z,0.68
2023-03-07T14:42:47.687Z,1.30
2023-03-07T14:45:22.226Z,1.15
2023-03-07T14:48:08.816Z,0.65
2023-03-07T14:50:43.914Z,0.57
2023-03-07T14:53:16.379Z,1.15
2023-03-07T14:55:46.236Z,1.05
2023-03-07T14:58:20.431Z,0.85
2023-03-07T15:00:58.510Z,0.98
2023-03-07T15:03:29.142Z,1.38
2023-03-07T15:05:59.964Z,0.90
2023-03-07T15:08:29.737Z,0.90
2023-03-07T15:11:00.788Z,1.42
2023-03-07T15:13:31.018Z,0.80
2023-03-07T15:16:00.330Z,0.90
2023-03-07T15:18:35.502Z,0.93
2023-03-07T15:21:05.860Z,0.82
2023-03-07T15:23:34.318Z,0.85
2023-03-07T15:26:05.059Z,0.60
2023-03-07T15:28:34.721Z,0.95
2023-03-07T15:31:03.249Z,0.93
2023-03-07T15:33:32.601Z,1.23
2023-03-07T15:36:24.291Z,1.08
2023-03-07T15:39:14.783Z,1.38
2023-03-07T15:41:43.200Z,2.60
2023-03-07T15:44:19.610Z,3.45
2023-03-07T15:46:48.872Z,2.53
2023-03-07T15:49:25.976Z,1.95
2023-03-07T15:51:57.166Z,0.80
2023-03-07T15:54:36.204Z,0.50
2023-03-07T15:57:06.164Z,0.30
2023-03-07T15:59:36.433Z,0.45
2023-03-07T16:02:23.589Z,0.45
2023-03-07T16:04:54.587Z,0.57
2023-03-07T16:07:24.510Z,0.47
2023-03-07T16:09:52.948Z,0.43
2023-03-07T16:12:22.870Z,0.68
2023-03-07T16:14:54.504Z,0.63
2023-03-07T16:17:24.646Z,0.30
2023-03-07T16:19:57.888Z,0.30
2023-03-07T16:22:29.398Z,0.40
2023-03-07T16:24:57.884Z,0.50
2023-03-07T16:27:26.420Z,0.35
2023-03-07T16:29:55.017Z,0.45
2023-03-07T16:32:23.882Z,0.60
2023-03-07T16:34:56.822Z,0.40
2023-03-07T16:37:28.686Z,0.90
2023-03-07T16:39:58.293Z,0.68
2023-03-07T16:42:29.084Z,0.60
2023-03-07T16:45:04.658Z,0.68
2023-03-07T16:47:33.169Z,0.73
2023-03-07T16:50:03.639Z,0.50
2023-03-07T16:52:31.986Z,0.60
2023-03-07T16:55:01.762Z,0.55
2023-03-07T16:57:32.253Z,0.57
2023-03-07T17:00:03.266Z,0.70
2023-03-07T17:02:32.860Z,0.50
2023-03-07T17:05:01.145Z,0.63
2023-03-07T17:07:32.271Z,0.75
2023-03-07T17:10:04.172Z,1.00
2023-03-07T17:12:32.441Z,0.40
2023-03-07T17:15:00.961Z,0.60
2023-03-07T17:17:30.257Z,0.70
2023-03-07T17:19:58.521Z,0.38
2023-03-07T17:22:26.816Z,1.00
2023-03-07T17:24:55.465Z,0.70
2023-03-07T17:27:25.433Z,0.68
2023-03-07T17:29:55.096Z,0.85
2023-03-07T17:32:26.081Z,0.40
2023-03-07T17:34:54.405Z,0.50
2023-03-07T17:37:22.641Z,0.77
2023-03-07T17:39:55.452Z,0.22
2023-03-07T17:42:25.380Z,0.88
2023-03-07T17:44:53.668Z,0.32
2023-03-07T17:47:22.028Z,0.40
2023-03-07T17:49:50.664Z,0.30
2023-03-07T17:52:19.091Z,0.60
2023-03-07T17:54:47.702Z,0.50
2023-03-07T17:57:16.296Z,0.55
2023-03-07T17:59:46.005Z,0.77
2023-03-07T18:02:15.387Z,0.70
2023-03-07T18:04:46.417Z,0.70
2023-03-07T18:07:18.416Z,0.60
2023-03-07T18:09:48.508Z,0.75
2023-03-07T18:12:20.131Z,0.70
2023-03-07T18:14:49.890Z,1.05
2023-03-07T18:17:18.358Z,0.98
2023-03-07T18:19:46.784Z,1.42
2023-03-07T18:22:15.334Z,1.00
2023-03-07T18:24:43.845Z,1.10
2023-03-07T18:27:12.120Z,1.42
2023-03-07T18:29:40.791Z,1.25
2023-03-07T18:32:12.663Z,1.00
2023-03-07T18:34:40.929Z,0.80
2023-03-07T18:37:11.334Z,1.45
2023-03-07T18:39:39.833Z,1.38
2023-03-07T18:42:11.318Z,1.08
2023-03-07T18:44:40.836Z,1.15
2023-03-07T18:47:10.934Z,1.02
2023-03-07T18:49:39.721Z,0.70
2023-03-07T18:52:10.623Z,1.50
2023-03-07T18:54:38.953Z,1.23
2023-03-07T18:57:07.505Z,1.25
2023-03-07T18:59:38.067Z,0.77
2023-03-07T19:02:06.831Z,0.73
2023-03-07T19:04:36.630Z,1.40
2023-03-07T19:07:04.920Z,1.10
2023-03-07T19:09:33.395Z,1.10
2023-03-07T19:12:06.346Z,1.38
2023-03-07T19:14:34.732Z,1.73
2023-03-07T19:17:05.245Z,1.65
2023-03-07T19:19:40.697Z,1.40
2023-03-07T19:22:11.415Z,1.77
2023-03-07T19:24:39.850Z,1.80
2023-03-07T19:27:08.793Z,2.05
2023-03-07T19:29:37.191Z,1.30
2023-03-07T19:32:06.330Z,1.13
2023-03-07T19:34:34.662Z,0.90
2023-03-07T19:37:04.277Z,0.65
2023-03-07T19:39:32.765Z,0.60
2023-03-07T19:42:07.708Z,0.45
2023-03-07T19:44:36.108Z,0.57
2023-03-07T19:47:04.346Z,0.50
2023-03-07T19:49:32.877Z,0.88
2023-03-07T19:52:01.331Z,1.00
2023-03-07T19:54:30.939Z,1.13
2023-03-07T19:57:01.607Z,1.20
2023-03-07T19:59:34.337Z,1.38
2023-03-07T20:02:02.675Z,0.95
2023-03-07T20:04:30.980Z,1.27
2023-03-07T20:06:59.303Z,1.42
2023-03-07T20:09:29.825Z,1.55
2023-03-07T20:11:59.615Z,1.60
2023-03-07T20:14:28.001Z,1.30
2023-03-07T20:16:58.627Z,1.30
2023-03-07T20:19:29.311Z,1.67
2023-03-07T20:21:57.662Z,2.95
2023-03-07T20:24:32.993Z,3.40
2023-03-07T20:27:02.697Z,2.63
2023-03-07T20:29:30.952Z,2.70
2023-03-07T20:31:59.453Z,2.63
2023-03-07T20:34:29.987Z,2.80
2023-03-07T20:37:00.382Z,2.42
2023-03-07T20:39:28.692Z,1.80
2023-03-07T20:41:57.158Z,2.40
2023-03-07T20:44:26.972Z,1.73
2023-03-07T20:46:55.723Z,2.30
2023-03-07T20:49:25.172Z,3.03
2023-03-07T20:51:53.456Z,2.22
2023-03-07T20:54:22.041Z,1.40
2023-03-07T20:56:50.258Z,1.33
2023-03-07T20:59:24.855Z,0.80
2023-03-07T21:01:55.476Z,0.50
2023-03-07T21:04:26.104Z,0.30
2023-03-07T21:06:54.460Z,0.52
2023-03-07T21:09:23.335Z,0.32
2023-03-07T21:11:51.638Z,0.30
2023-03-07T21:14:20.992Z,0.35
2023-03-07T21:16:49.275Z,0.20
2023-03-07T21:19:18.963Z,0.60
2023-03-07T21:21:47.444Z,0.47
2023-03-07T21:24:16.229Z,0.50
2023-03-07T21:26:44.624Z,0.70
2023-03-07T21:29:14.009Z,0.77
2023-03-07T21:31:42.431Z,0.63
2023-03-07T21:34:13.950Z,0.70
2023-03-07T21:36:45.733Z,1.13
2023-03-07T21:39:14.003Z,0.60
2023-03-07T21:41:42.405Z,0.43
2023-03-07T21:44:11.422Z,0.50
2023-03-07T21:46:39.877Z,0.30
2023-03-07T21:49:10.152Z,0.35
2023-03-07T21:51:38.696Z,0.30
2023-03-07T21:54:10.471Z,0.60
2023-03-07T21:56:38.961Z,0.43
2023-03-07T21:59:07.521Z,0.50
2023-03-07T22:01:35.882Z,0.30
2023-03-07T22:04:04.495Z,0.30
2023-03-07T22:06:32.879Z,0.35
2023-03-07T22:09:01.132Z,0.65
2023-03-07T22:11:30.953Z,0.88
2023-03-07T22:13:59.217Z,0.50
2023-03-07T22:16:27.540Z,0.57
2023-03-07T22:18:56.577Z,0.50
2023-03-07T22:21:27.707Z,0.60
2023-03-07T22:23:58.068Z,0.65
2023-03-07T22:26:31.488Z,0.40
2023-03-07T22:29:03.665Z,0.70
2023-03-07T22:31:32.300Z,0.50
2023-03-07T22:34:00.695Z,0.40
2023-03-07T22:36:29.065Z,0.57
2023-03-07T22:38:57.691Z,0.50
2023-03-07T22:41:26.910Z,0.70
2023-03-07T22:43:57.485Z,0.90
2023-03-07T22:46:29.649Z,0.60
2023-03-07T22:48:58.599Z,0.88
2023-03-07T22:51:27.458Z,0.88
2023-03-07T22:53:55.964Z,0.85
2023-03-07T22:56:27.448Z,0.80
2023-03-07T22:58:56.149Z,0.80
2023-03-07T23:01:25.548Z,1.10
2023-03-07T23:03:57.916Z,0.70
2023-03-07T23:06:28.154Z,0.88
2023-03-07T23:08:56.514Z,1.13
2023-03-07T23:11:30.406Z,1.10
2023-03-07T23:14:05.598Z,0.95
2023-03-07T23:16:36.301Z,1.33
2023-03-07T23:19:08.769Z,1.00
2023-03-07T23:21:37.328Z,1.17
2023-03-07T23:24:10.911Z,1.25
2023-03-07T23:26:40.137Z,1.10
2023-03-07T23:29:13.324Z,1.20
2023-03-07T23:31:42.876Z,1.20
2023-03-07T23:34:17.883Z,1.58
2023-03-07T23:36:52.825Z,1.33
2023-03-07T23:39:21.161Z,1.20
2023-03-07T23:41:49.466Z,1.25
2023-03-07T23:44:17.815Z,1.85
2023-03-07T23:46:46.144Z,1.75
2023-03-07T23:49:15.765Z,1.88
2023-03-07T23:51:44.576Z,2.17
2023-03-07T23:54:12.853Z,2.50
2023-03-07T23:56:41.060Z,1.73
2023-03-07T23:59:09.553Z,2.25
